sensor_id;sensor_type;location;lat;lon;timestamp;temperature;humidity
6627;DHT22;3349;49.830;8.748;2023-12-04T00:01:33;-3.60;94.50
6627;DHT22;3349;49.830;8.748;2023-12-04T00:04:01;-3.60;94.40
6627;DHT22;3349;49.830;8.748;2023-12-04T00:06:28;-3.60;94.30
6627;DHT22;3349;49.830;8.748;2023-12-04T00:08:55;-3.60;94.20
6627;DHT22;3349;49.830;8.748;2023-12-04T00:11:21;-3.60;94.50
6627;DHT22;3349;49.830;8.748;2023-12-04T00:13:48;-3.60;94.50
6627;DHT22;3349;49.830;8.748;2023-12-04T00:16:15;-3.70;94.50
6627;DHT22;3349;49.830;8.748;2023-12-04T00:18:41;-3.70;94.50
6627;DHT22;3349;49.830;8.748;2023-12-04T00:21:09;-3.70;94.50
6627;DHT22;3349;49.830;8.748;2023-12-04T00:23:36;-3.70;94.50
6627;DHT22;3349;49.830;8.748;2023-12-04T00:26:03;-3.70;94.70
6627;DHT22;3349;49.830;8.748;2023-12-04T00:28:30;-3.70;94.90
6627;DHT22;3349;49.830;8.748;2023-12-04T00:30:56;-3.70;95.00
6627;DHT22;3349;49.830;8.748;2023-12-04T00:33:23;-3.80;95.00
6627;DHT22;3349;49.830;8.748;2023-12-04T00:35:49;-3.80;94.80
6627;DHT22;3349;49.830;8.748;2023-12-04T00:38:17;-3.90;94.70
6627;DHT22;3349;49.830;8.748;2023-12-04T00:40:44;-3.90;94.50
6627;DHT22;3349;49.830;8.748;2023-12-04T00:43:11;-4.00;94.60
6627;DHT22;3349;49.830;8.748;2023-12-04T00:45:37;-4.00;94.80
6627;DHT22;3349;49.830;8.748;2023-12-04T00:48:05;-4.10;94.80
6627;DHT22;3349;49.830;8.748;2023-12-04T00:50:32;-4.00;95.10
6627;DHT22;3349;49.830;8.748;2023-12-04T00:52:58;-4.00;95.70
6627;DHT22;3349;49.830;8.748;2023-12-04T00:55:26;-4.10;95.70
6627;DHT22;3349;49.830;8.748;2023-12-04T00:57:53;-4.10;95.50
6627;DHT22;3349;49.830;8.748;2023-12-04T01:00:20;-4.10;95.60
6627;DHT22;3349;49.830;8.748;2023-12-04T01:02:46;-4.20;95.40
6627;DHT22;3349;49.830;8.748;2023-12-04T01:05:13;-4.20;95.40
6627;DHT22;3349;49.830;8.748;2023-12-04T01:07:40;-4.10;95.90
6627;DHT22;3349;49.830;8.748;2023-12-04T01:10:07;-4.20;95.70
6627;DHT22;3349;49.830;8.748;2023-12-04T01:12:35;-4.20;95.70
6627;DHT22;3349;49.830;8.748;2023-12-04T01:15:02;-4.30;95.60
6627;DHT22;3349;49.830;8.748;2023-12-04T01:17:29;-4.30;95.70
6627;DHT22;3349;49.830;8.748;2023-12-04T01:19:56;-4.30;95.80
6627;DHT22;3349;49.830;8.748;2023-12-04T01:22:23;-4.30;96.00
6627;DHT22;3349;49.830;8.748;2023-12-04T01:24:50;-4.30;96.00
6627;DHT22;3349;49.830;8.748;2023-12-04T01:27:16;-4.30;96.00
6627;DHT22;3349;49.830;8.748;2023-12-04T01:29:44;-4.20;96.20
6627;DHT22;3349;49.830;8.748;2023-12-04T01:32:11;-4.20;96.20
6627;DHT22;3349;49.830;8.748;2023-12-04T01:34:37;-4.20;96.30
6627;DHT22;3349;49.830;8.748;2023-12-04T01:37:04;-4.10;96.90
6627;DHT22;3349;49.830;8.748;2023-12-04T01:39:31;-4.10;96.80
6627;DHT22;3349;49.830;8.748;2023-12-04T01:41:57;-4.10;96.90
6627;DHT22;3349;49.830;8.748;2023-12-04T01:44:24;-4.10;97.10
6627;DHT22;3349;49.830;8.748;2023-12-04T01:46:52;-4.10;96.80
6627;DHT22;3349;49.830;8.748;2023-12-04T01:49:19;-4.10;96.70
6627;DHT22;3349;49.830;8.748;2023-12-04T01:51:46;-4.20;96.60
6627;DHT22;3349;49.830;8.748;2023-12-04T01:54:13;-4.20;96.60
6627;DHT22;3349;49.830;8.748;2023-12-04T01:56:40;-4.10;96.60
6627;DHT22;3349;49.830;8.748;2023-12-04T01:59:07;-4.10;96.70
6627;DHT22;3349;49.830;8.748;2023-12-04T02:01:34;-4.20;96.50
6627;DHT22;3349;49.830;8.748;2023-12-04T02:04:04;-4.10;96.50
6627;DHT22;3349;49.830;8.748;2023-12-04T02:06:31;-4.20;96.50
6627;DHT22;3349;49.830;8.748;2023-12-04T02:08:57;-4.20;96.30
6627;DHT22;3349;49.830;8.748;2023-12-04T02:11:24;-4.10;96.30
6627;DHT22;3349;49.830;8.748;2023-12-04T02:13:51;-4.10;96.20
6627;DHT22;3349;49.830;8.748;2023-12-04T02:16:18;-4.20;96.10
6627;DHT22;3349;49.830;8.748;2023-12-04T02:18:46;-4.20;96.10
6627;DHT22;3349;49.830;8.748;2023-12-04T02:21:14;-4.20;95.90
6627;DHT22;3349;49.830;8.748;2023-12-04T02:23:41;-4.20;95.90
6627;DHT22;3349;49.830;8.748;2023-12-04T02:26:14;-4.20;95.90
6627;DHT22;3349;49.830;8.748;2023-12-04T02:28:46;-4.20;96.10
6627;DHT22;3349;49.830;8.748;2023-12-04T02:31:13;-4.10;96.40
6627;DHT22;3349;49.830;8.748;2023-12-04T02:33:42;-4.10;96.20
6627;DHT22;3349;49.830;8.748;2023-12-04T02:36:10;-4.00;96.20
6627;DHT22;3349;49.830;8.748;2023-12-04T02:38:37;-4.10;96.00
6627;DHT22;3349;49.830;8.748;2023-12-04T02:41:05;-4.10;95.90
6627;DHT22;3349;49.830;8.748;2023-12-04T02:43:33;-4.10;95.70
6627;DHT22;3349;49.830;8.748;2023-12-04T02:46:00;-4.00;95.50
6627;DHT22;3349;49.830;8.748;2023-12-04T02:48:26;-4.00;95.20
6627;DHT22;3349;49.830;8.748;2023-12-04T02:50:53;-4.10;94.90
6627;DHT22;3349;49.830;8.748;2023-12-04T02:53:20;-4.10;94.70
6627;DHT22;3349;49.830;8.748;2023-12-04T02:55:46;-4.10;94.50
6627;DHT22;3349;49.830;8.748;2023-12-04T02:58:13;-4.10;94.30
6627;DHT22;3349;49.830;8.748;2023-12-04T03:00:41;-4.20;94.30
6627;DHT22;3349;49.830;8.748;2023-12-04T03:03:07;-4.10;94.30
6627;DHT22;3349;49.830;8.748;2023-12-04T03:05:34;-4.10;94.30
6627;DHT22;3349;49.830;8.748;2023-12-04T03:08:01;-4.20;94.30
6627;DHT22;3349;49.830;8.748;2023-12-04T03:10:27;-4.20;94.30
6627;DHT22;3349;49.830;8.748;2023-12-04T03:12:54;-4.20;94.30
6627;DHT22;3349;49.830;8.748;2023-12-04T03:15:21;-4.20;94.30
6627;DHT22;3349;49.830;8.748;2023-12-04T03:17:49;-4.20;94.30
6627;DHT22;3349;49.830;8.748;2023-12-04T03:20:15;-4.20;94.30
6627;DHT22;3349;49.830;8.748;2023-12-04T03:22:42;-4.20;94.30
6627;DHT22;3349;49.830;8.748;2023-12-04T03:25:09;-4.20;94.30
6627;DHT22;3349;49.830;8.748;2023-12-04T03:27:35;-4.20;94.30
6627;DHT22;3349;49.830;8.748;2023-12-04T03:30:03;-4.20;94.20
6627;DHT22;3349;49.830;8.748;2023-12-04T03:32:30;-4.20;94.20
6627;DHT22;3349;49.830;8.748;2023-12-04T03:34:58;-4.20;94.30
6627;DHT22;3349;49.830;8.748;2023-12-04T03:37:24;-4.10;94.50
6627;DHT22;3349;49.830;8.748;2023-12-04T03:39:51;-4.00;94.80
6627;DHT22;3349;49.830;8.748;2023-12-04T03:42:18;-4.00;94.60
6627;DHT22;3349;49.830;8.748;2023-12-04T03:44:45;-4.00;94.60
6627;DHT22;3349;49.830;8.748;2023-12-04T03:47:11;-3.90;94.90
6627;DHT22;3349;49.830;8.748;2023-12-04T03:49:38;-3.80;94.80
6627;DHT22;3349;49.830;8.748;2023-12-04T03:52:06;-3.80;94.50
6627;DHT22;3349;49.830;8.748;2023-12-04T03:54:33;-3.80;94.50
6627;DHT22;3349;49.830;8.748;2023-12-04T03:56:59;-3.80;94.10
6627;DHT22;3349;49.830;8.748;2023-12-04T03:59:26;-3.70;94.10
6627;DHT22;3349;49.830;8.748;2023-12-04T04:01:53;-3.70;93.70
6627;DHT22;3349;49.830;8.748;2023-12-04T04:04:19;-3.70;93.40
6627;DHT22;3349;49.830;8.748;2023-12-04T04:06:46;-3.70;93.20
6627;DHT22;3349;49.830;8.748;2023-12-04T04:09:14;-3.70;93.10
6627;DHT22;3349;49.830;8.748;2023-12-04T04:11:42;-3.60;93.20
6627;DHT22;3349;49.830;8.748;2023-12-04T04:14:09;-3.60;93.20
6627;DHT22;3349;49.830;8.748;2023-12-04T04:16:35;-3.50;93.30
6627;DHT22;3349;49.830;8.748;2023-12-04T04:19:02;-3.40;93.00
6627;DHT22;3349;49.830;8.748;2023-12-04T04:21:29;-3.40;92.80
6627;DHT22;3349;49.830;8.748;2023-12-04T04:23:55;-3.20;92.40
6627;DHT22;3349;49.830;8.748;2023-12-04T04:26:23;-3.10;92.20
6627;DHT22;3349;49.830;8.748;2023-12-04T04:28:50;-3.10;91.60
6627;DHT22;3349;49.830;8.748;2023-12-04T04:31:16;-3.00;91.20
6627;DHT22;3349;49.830;8.748;2023-12-04T04:33:43;-3.10;90.60
6627;DHT22;3349;49.830;8.748;2023-12-04T04:36:10;-3.10;90.30
6627;DHT22;3349;49.830;8.748;2023-12-04T04:38:39;-3.10;89.80
6627;DHT22;3349;49.830;8.748;2023-12-04T04:41:06;-3.10;89.40
6627;DHT22;3349;49.830;8.748;2023-12-04T04:43:34;-3.00;89.60
6627;DHT22;3349;49.830;8.748;2023-12-04T04:46:00;-2.90;88.60
6627;DHT22;3349;49.830;8.748;2023-12-04T04:48:27;-3.00;87.70
6627;DHT22;3349;49.830;8.748;2023-12-04T04:50:54;-2.90;87.80
6627;DHT22;3349;49.830;8.748;2023-12-04T04:53:20;-2.90;86.90
6627;DHT22;3349;49.830;8.748;2023-12-04T04:55:47;-2.90;87.00
6627;DHT22;3349;49.830;8.748;2023-12-04T04:58:14;-2.90;85.90
6627;DHT22;3349;49.830;8.748;2023-12-04T05:00:42;-2.90;85.70
6627;DHT22;3349;49.830;8.748;2023-12-04T05:03:09;-2.90;85.50
6627;DHT22;3349;49.830;8.748;2023-12-04T05:05:36;-2.90;85.50
6627;DHT22;3349;49.830;8.748;2023-12-04T05:08:02;-2.90;85.10
6627;DHT22;3349;49.830;8.748;2023-12-04T05:10:29;-2.90;84.80
6627;DHT22;3349;49.830;8.748;2023-12-04T05:12:56;-2.80;84.60
6627;DHT22;3349;49.830;8.748;2023-12-04T05:15:22;-2.90;84.50
6627;DHT22;3349;49.830;8.748;2023-12-04T05:17:51;-2.90;84.50
6627;DHT22;3349;49.830;8.748;2023-12-04T05:20:17;-2.90;84.50
6627;DHT22;3349;49.830;8.748;2023-12-04T05:22:44;-3.00;84.30
6627;DHT22;3349;49.830;8.748;2023-12-04T05:25:11;-3.00;84.20
6627;DHT22;3349;49.830;8.748;2023-12-04T05:27:37;-3.00;85.00
6627;DHT22;3349;49.830;8.748;2023-12-04T05:30:05;-3.00;84.80
6627;DHT22;3349;49.830;8.748;2023-12-04T05:32:32;-3.00;85.50
6627;DHT22;3349;49.830;8.748;2023-12-04T05:35:00;-2.90;86.00
6627;DHT22;3349;49.830;8.748;2023-12-04T05:37:26;-3.00;85.40
6627;DHT22;3349;49.830;8.748;2023-12-04T05:39:53;-3.00;85.70
6627;DHT22;3349;49.830;8.748;2023-12-04T05:42:20;-3.00;86.10
6627;DHT22;3349;49.830;8.748;2023-12-04T05:44:46;-3.00;86.00
6627;DHT22;3349;49.830;8.748;2023-12-04T05:47:13;-3.10;85.70
6627;DHT22;3349;49.830;8.748;2023-12-04T05:49:40;-3.10;85.50
6627;DHT22;3349;49.830;8.748;2023-12-04T05:52:08;-3.20;85.20
6627;DHT22;3349;49.830;8.748;2023-12-04T05:54:34;-3.30;85.10
6627;DHT22;3349;49.830;8.748;2023-12-04T05:57:01;-3.30;85.40
6627;DHT22;3349;49.830;8.748;2023-12-04T05:59:28;-3.30;85.40
6627;DHT22;3349;49.830;8.748;2023-12-04T06:01:54;-3.40;85.50
6627;DHT22;3349;49.830;8.748;2023-12-04T06:04:21;-3.40;86.00
6627;DHT22;3349;49.830;8.748;2023-12-04T06:06:48;-3.40;86.30
6627;DHT22;3349;49.830;8.748;2023-12-04T06:09:16;-3.30;86.80
6627;DHT22;3349;49.830;8.748;2023-12-04T06:11:42;-3.30;87.60
6627;DHT22;3349;49.830;8.748;2023-12-04T06:14:09;-3.30;87.70
6627;DHT22;3349;49.830;8.748;2023-12-04T06:16:36;-3.30;88.10
6627;DHT22;3349;49.830;8.748;2023-12-04T06:19:03;-3.30;88.30
6627;DHT22;3349;49.830;8.748;2023-12-04T06:21:30;-3.20;88.30
6627;DHT22;3349;49.830;8.748;2023-12-04T06:23:57;-3.30;88.30
6627;DHT22;3349;49.830;8.748;2023-12-04T06:26:26;-3.20;89.00
6627;DHT22;3349;49.830;8.748;2023-12-04T06:28:53;-3.10;89.50
6627;DHT22;3349;49.830;8.748;2023-12-04T06:31:21;-3.10;89.50
6627;DHT22;3349;49.830;8.748;2023-12-04T06:33:48;-3.10;89.20
6627;DHT22;3349;49.830;8.748;2023-12-04T06:36:17;-3.10;89.00
6627;DHT22;3349;49.830;8.748;2023-12-04T06:38:47;-3.20;88.80
6627;DHT22;3349;49.830;8.748;2023-12-04T06:41:14;-3.10;90.00
6627;DHT22;3349;49.830;8.748;2023-12-04T06:43:44;-3.10;89.70
6627;DHT22;3349;49.830;8.748;2023-12-04T06:46:13;-3.10;89.50
6627;DHT22;3349;49.830;8.748;2023-12-04T06:48:42;-3.20;89.50
6627;DHT22;3349;49.830;8.748;2023-12-04T06:51:09;-3.20;89.70
6627;DHT22;3349;49.830;8.748;2023-12-04T06:53:36;-3.20;89.90
6627;DHT22;3349;49.830;8.748;2023-12-04T06:56:03;-3.20;89.90
6627;DHT22;3349;49.830;8.748;2023-12-04T06:58:30;-3.10;90.00
6627;DHT22;3349;49.830;8.748;2023-12-04T07:00:58;-3.10;90.00
6627;DHT22;3349;49.830;8.748;2023-12-04T07:03:24;-3.10;90.00
6627;DHT22;3349;49.830;8.748;2023-12-04T07:05:51;-3.10;90.00
6627;DHT22;3349;49.830;8.748;2023-12-04T07:08:18;-3.10;89.70
6627;DHT22;3349;49.830;8.748;2023-12-04T07:10:45;-2.90;90.10
6627;DHT22;3349;49.830;8.748;2023-12-04T07:13:11;-2.90;90.20
6627;DHT22;3349;49.830;8.748;2023-12-04T07:15:38;-2.80;89.90
6627;DHT22;3349;49.830;8.748;2023-12-04T07:18:06;-2.80;88.50
6627;DHT22;3349;49.830;8.748;2023-12-04T07:20:33;-2.70;86.30
6627;DHT22;3349;49.830;8.748;2023-12-04T07:22:59;-2.60;84.80
6627;DHT22;3349;49.830;8.748;2023-12-04T07:25:26;-2.50;84.00
6627;DHT22;3349;49.830;8.748;2023-12-04T07:27:53;-2.50;83.70
6627;DHT22;3349;49.830;8.748;2023-12-04T07:30:19;-2.80;82.70
6627;DHT22;3349;49.830;8.748;2023-12-04T07:32:46;-2.30;82.70
6627;DHT22;3349;49.830;8.748;2023-12-04T07:35:14;-2.30;82.20
6627;DHT22;3349;49.830;8.748;2023-12-04T07:37:43;-2.20;82.30
6627;DHT22;3349;49.830;8.748;2023-12-04T07:40:10;-2.20;81.60
6627;DHT22;3349;49.830;8.748;2023-12-04T07:42:37;-2.20;81.00
6627;DHT22;3349;49.830;8.748;2023-12-04T07:45:05;-2.10;81.10
6627;DHT22;3349;49.830;8.748;2023-12-04T07:47:31;-2.00;81.10
6627;DHT22;3349;49.830;8.748;2023-12-04T07:49:59;-1.90;79.80
6627;DHT22;3349;49.830;8.748;2023-12-04T07:52:27;-1.90;79.00
6627;DHT22;3349;49.830;8.748;2023-12-04T07:54:54;-1.80;78.40
6627;DHT22;3349;49.830;8.748;2023-12-04T07:57:21;-1.80;77.50
6627;DHT22;3349;49.830;8.748;2023-12-04T07:59:47;-1.70;77.40
6627;DHT22;3349;49.830;8.748;2023-12-04T08:02:14;-1.60;76.90
6627;DHT22;3349;49.830;8.748;2023-12-04T08:04:41;-1.60;75.70
6627;DHT22;3349;49.830;8.748;2023-12-04T08:07:07;-1.50;75.40
6627;DHT22;3349;49.830;8.748;2023-12-04T08:09:36;-1.40;74.30
6627;DHT22;3349;49.830;8.748;2023-12-04T08:12:02;-1.30;73.50
6627;DHT22;3349;49.830;8.748;2023-12-04T08:14:29;-1.20;73.30
6627;DHT22;3349;49.830;8.748;2023-12-04T08:16:56;-1.20;73.30
6627;DHT22;3349;49.830;8.748;2023-12-04T08:19:22;-1.20;73.40
6627;DHT22;3349;49.830;8.748;2023-12-04T08:21:49;-1.10;73.40
6627;DHT22;3349;49.830;8.748;2023-12-04T08:24:16;-1.10;73.20
6627;DHT22;3349;49.830;8.748;2023-12-04T08:26:45;-1.10;73.40
6627;DHT22;3349;49.830;8.748;2023-12-04T08:29:12;-1.00;73.10
6627;DHT22;3349;49.830;8.748;2023-12-04T08:31:38;-0.90;72.40
6627;DHT22;3349;49.830;8.748;2023-12-04T08:34:05;-0.90;72.20
6627;DHT22;3349;49.830;8.748;2023-12-04T08:36:32;-0.80;72.40
6627;DHT22;3349;49.830;8.748;2023-12-04T08:38:59;-0.70;72.50
6627;DHT22;3349;49.830;8.748;2023-12-04T08:41:25;-0.60;72.80
6627;DHT22;3349;49.830;8.748;2023-12-04T08:43:55;-0.60;72.50
6627;DHT22;3349;49.830;8.748;2023-12-04T08:46:21;-0.50;72.50
6627;DHT22;3349;49.830;8.748;2023-12-04T08:48:48;-0.40;72.40
6627;DHT22;3349;49.830;8.748;2023-12-04T08:51:15;-0.30;71.80
6627;DHT22;3349;49.830;8.748;2023-12-04T08:53:42;-0.30;71.40
6627;DHT22;3349;49.830;8.748;2023-12-04T08:56:10;-0.20;70.70
6627;DHT22;3349;49.830;8.748;2023-12-04T08:58:38;-0.20;70.10
6627;DHT22;3349;49.830;8.748;2023-12-04T09:01:06;-0.10;69.60
6627;DHT22;3349;49.830;8.748;2023-12-04T09:03:33;-0.10;69.20
6627;DHT22;3349;49.830;8.748;2023-12-04T09:06:00;0.00;68.40
6627;DHT22;3349;49.830;8.748;2023-12-04T09:08:26;0.00;68.00
6627;DHT22;3349;49.830;8.748;2023-12-04T09:10:53;0.00;68.20
6627;DHT22;3349;49.830;8.748;2023-12-04T09:13:19;0.10;68.30
6627;DHT22;3349;49.830;8.748;2023-12-04T09:15:46;0.10;68.00
6627;DHT22;3349;49.830;8.748;2023-12-04T09:18:14;0.10;67.10
6627;DHT22;3349;49.830;8.748;2023-12-04T09:20:41;0.20;66.80
6627;DHT22;3349;49.830;8.748;2023-12-04T09:23:08;0.30;66.40
6627;DHT22;3349;49.830;8.748;2023-12-04T09:25:35;0.30;66.00
6627;DHT22;3349;49.830;8.748;2023-12-04T09:28:01;0.30;66.00
6627;DHT22;3349;49.830;8.748;2023-12-04T09:30:28;0.30;66.00
6627;DHT22;3349;49.830;8.748;2023-12-04T09:32:55;0.40;66.00
6627;DHT22;3349;49.830;8.748;2023-12-04T09:35:23;0.30;64.60
6627;DHT22;3349;49.830;8.748;2023-12-04T09:37:49;0.40;65.30
6627;DHT22;3349;49.830;8.748;2023-12-04T09:40:17;0.40;65.30
6627;DHT22;3349;49.830;8.748;2023-12-04T09:42:43;0.40;65.00
6627;DHT22;3349;49.830;8.748;2023-12-04T09:45:11;0.40;65.10
6627;DHT22;3349;49.830;8.748;2023-12-04T09:47:38;0.30;65.00
6627;DHT22;3349;49.830;8.748;2023-12-04T09:50:06;0.30;65.00
6627;DHT22;3349;49.830;8.748;2023-12-04T09:52:35;0.30;65.10
6627;DHT22;3349;49.830;8.748;2023-12-04T09:55:02;0.30;65.10
6627;DHT22;3349;49.830;8.748;2023-12-04T09:57:31;0.30;65.10
6627;DHT22;3349;49.830;8.748;2023-12-04T09:59:59;0.20;64.90
6627;DHT22;3349;49.830;8.748;2023-12-04T10:02:26;0.30;65.50
6627;DHT22;3349;49.830;8.748;2023-12-04T10:04:53;0.20;65.50
6627;DHT22;3349;49.830;8.748;2023-12-04T10:07:20;0.20;65.90
6627;DHT22;3349;49.830;8.748;2023-12-04T10:09:48;0.20;65.90
6627;DHT22;3349;49.830;8.748;2023-12-04T10:12:18;0.30;66.00
6627;DHT22;3349;49.830;8.748;2023-12-04T10:15:02;0.30;66.00
6627;DHT22;3349;49.830;8.748;2023-12-04T10:17:33;0.30;66.00
6627;DHT22;3349;49.830;8.748;2023-12-04T10:20:04;0.30;66.00
6627;DHT22;3349;49.830;8.748;2023-12-04T10:22:36;0.40;65.20
6627;DHT22;3349;49.830;8.748;2023-12-04T10:25:13;0.40;65.00
6627;DHT22;3349;49.830;8.748;2023-12-04T10:27:40;0.50;64.80
6627;DHT22;3349;49.830;8.748;2023-12-04T10:30:08;0.60;64.10
6627;DHT22;3349;49.830;8.748;2023-12-04T10:32:36;0.60;63.30
6627;DHT22;3349;49.830;8.748;2023-12-04T10:35:03;0.70;63.30
6627;DHT22;3349;49.830;8.748;2023-12-04T10:37:36;0.70;63.30
6627;DHT22;3349;49.830;8.748;2023-12-04T10:40:04;0.70;63.20
6627;DHT22;3349;49.830;8.748;2023-12-04T10:42:35;0.80;62.80
6627;DHT22;3349;49.830;8.748;2023-12-04T10:45:02;0.80;62.80
6627;DHT22;3349;49.830;8.748;2023-12-04T10:47:34;0.80;62.90
6627;DHT22;3349;49.830;8.748;2023-12-04T10:50:01;0.90;62.80
6627;DHT22;3349;49.830;8.748;2023-12-04T10:52:30;1.00;62.80
6627;DHT22;3349;49.830;8.748;2023-12-04T10:54:58;1.10;62.20
6627;DHT22;3349;49.830;8.748;2023-12-04T10:57:26;1.20;61.70
6627;DHT22;3349;49.830;8.748;2023-12-04T10:59:57;1.20;61.40
6627;DHT22;3349;49.830;8.748;2023-12-04T11:02:26;1.10;60.40
6627;DHT22;3349;49.830;8.748;2023-12-04T11:05:01;1.10;59.40
6627;DHT22;3349;49.830;8.748;2023-12-04T11:07:30;1.10;58.50
6627;DHT22;3349;49.830;8.748;2023-12-04T11:09:59;1.00;58.00
6627;DHT22;3349;49.830;8.748;2023-12-04T11:12:28;0.90;57.90
6627;DHT22;3349;49.830;8.748;2023-12-04T11:14:59;0.90;57.90
6627;DHT22;3349;49.830;8.748;2023-12-04T11:17:32;0.80;57.80
6627;DHT22;3349;49.830;8.748;2023-12-04T11:20:07;0.80;57.80
6627;DHT22;3349;49.830;8.748;2023-12-04T11:22:38;0.80;57.80
6627;DHT22;3349;49.830;8.748;2023-12-04T11:25:06;0.80;57.80
6627;DHT22;3349;49.830;8.748;2023-12-04T11:27:33;0.80;57.60
6627;DHT22;3349;49.830;8.748;2023-12-04T11:30:03;0.80;57.80
6627;DHT22;3349;49.830;8.748;2023-12-04T11:32:31;0.70;58.20
6627;DHT22;3349;49.830;8.748;2023-12-04T11:34:59;0.70;58.30
6627;DHT22;3349;49.830;8.748;2023-12-04T11:37:28;0.70;59.30
6627;DHT22;3349;49.830;8.748;2023-12-04T11:39:54;0.60;60.30
6627;DHT22;3349;49.830;8.748;2023-12-04T11:42:23;0.60;62.00
6627;DHT22;3349;49.830;8.748;2023-12-04T11:44:53;0.60;63.80
6627;DHT22;3349;49.830;8.748;2023-12-04T11:47:23;0.70;66.40
6627;DHT22;3349;49.830;8.748;2023-12-04T11:49:50;0.60;67.40
6627;DHT22;3349;49.830;8.748;2023-12-04T11:52:16;0.60;69.30
6627;DHT22;3349;49.830;8.748;2023-12-04T11:55:00;0.60;73.20
6627;DHT22;3349;49.830;8.748;2023-12-04T11:57:32;0.50;73.20
6627;DHT22;3349;49.830;8.748;2023-12-04T12:00:13;0.50;73.20
6627;DHT22;3349;49.830;8.748;2023-12-04T12:02:48;0.50;74.50
6627;DHT22;3349;49.830;8.748;2023-12-04T12:05:15;0.60;75.30
6627;DHT22;3349;49.830;8.748;2023-12-04T12:07:43;0.50;76.60
6627;DHT22;3349;49.830;8.748;2023-12-04T12:10:11;0.50;77.30
6627;DHT22;3349;49.830;8.748;2023-12-04T12:12:39;0.60;78.80
6627;DHT22;3349;49.830;8.748;2023-12-04T12:15:08;0.60;79.20
6627;DHT22;3349;49.830;8.748;2023-12-04T12:17:37;0.70;80.50
6627;DHT22;3349;49.830;8.748;2023-12-04T12:20:06;0.90;80.50
6627;DHT22;3349;49.830;8.748;2023-12-04T12:22:35;0.90;79.60
6627;DHT22;3349;49.830;8.748;2023-12-04T12:25:04;1.00;80.50
6627;DHT22;3349;49.830;8.748;2023-12-04T12:27:31;1.00;80.50
6627;DHT22;3349;49.830;8.748;2023-12-04T12:29:58;1.10;79.50
6627;DHT22;3349;49.830;8.748;2023-12-04T12:32:26;1.00;79.60
6627;DHT22;3349;49.830;8.748;2023-12-04T12:34:52;1.00;80.30
6627;DHT22;3349;49.830;8.748;2023-12-04T12:37:21;1.10;80.50
6627;DHT22;3349;49.830;8.748;2023-12-04T12:39:48;1.10;81.10
6627;DHT22;3349;49.830;8.748;2023-12-04T12:42:21;1.10;82.30
6627;DHT22;3349;49.830;8.748;2023-12-04T12:44:48;1.20;84.20
6627;DHT22;3349;49.830;8.748;2023-12-04T12:47:15;1.20;85.40
6627;DHT22;3349;49.830;8.748;2023-12-04T12:49:43;1.30;85.20
6627;DHT22;3349;49.830;8.748;2023-12-04T12:52:10;1.20;85.50
6627;DHT22;3349;49.830;8.748;2023-12-04T12:59:49;1.30;88.50
6627;DHT22;3349;49.830;8.748;2023-12-04T13:02:16;1.30;88.50
6627;DHT22;3349;49.830;8.748;2023-12-04T13:04:44;1.30;88.80
6627;DHT22;3349;49.830;8.748;2023-12-04T13:07:10;1.30;90.00
6627;DHT22;3349;49.830;8.748;2023-12-04T13:09:37;1.20;90.00
6627;DHT22;3349;49.830;8.748;2023-12-04T13:12:05;1.20;89.80
6627;DHT22;3349;49.830;8.748;2023-12-04T13:14:33;1.20;90.00
6627;DHT22;3349;49.830;8.748;2023-12-04T13:17:02;1.20;89.60
6627;DHT22;3349;49.830;8.748;2023-12-04T13:19:29;1.10;90.10
6627;DHT22;3349;49.830;8.748;2023-12-04T13:21:57;1.10;90.60
6627;DHT22;3349;49.830;8.748;2023-12-04T13:24:23;1.00;91.30
6627;DHT22;3349;49.830;8.748;2023-12-04T13:26:51;1.00;91.80
6627;DHT22;3349;49.830;8.748;2023-12-04T13:29:18;1.00;92.50
6627;DHT22;3349;49.830;8.748;2023-12-04T13:31:45;1.00;92.20
6627;DHT22;3349;49.830;8.748;2023-12-04T13:34:13;1.10;92.90
6627;DHT22;3349;49.830;8.748;2023-12-04T13:36:40;1.00;92.90
6627;DHT22;3349;49.830;8.748;2023-12-04T13:39:06;1.00;93.20
6627;DHT22;3349;49.830;8.748;2023-12-04T13:41:42;1.00;93.70
6627;DHT22;3349;49.830;8.748;2023-12-04T13:44:26;1.10;93.80
6627;DHT22;3349;49.830;8.748;2023-12-04T13:46:53;1.00;93.80
6627;DHT22;3349;49.830;8.748;2023-12-04T13:49:21;1.00;94.00
6627;DHT22;3349;49.830;8.748;2023-12-04T13:51:47;1.00;94.40
6627;DHT22;3349;49.830;8.748;2023-12-04T13:54:15;1.10;94.40
6627;DHT22;3349;49.830;8.748;2023-12-04T13:56:47;1.00;94.50
6627;DHT22;3349;49.830;8.748;2023-12-04T13:59:19;1.00;94.60
6627;DHT22;3349;49.830;8.748;2023-12-04T14:01:47;1.00;94.90
6627;DHT22;3349;49.830;8.748;2023-12-04T14:04:15;1.00;94.80
6627;DHT22;3349;49.830;8.748;2023-12-04T14:06:43;1.00;95.30
6627;DHT22;3349;49.830;8.748;2023-12-04T14:09:11;1.10;95.90
6627;DHT22;3349;49.830;8.748;2023-12-04T14:11:42;1.00;96.50
6627;DHT22;3349;49.830;8.748;2023-12-04T14:14:09;1.10;96.70
6627;DHT22;3349;49.830;8.748;2023-12-04T14:16:36;1.10;96.50
6627;DHT22;3349;49.830;8.748;2023-12-04T14:19:03;1.10;96.50
6627;DHT22;3349;49.830;8.748;2023-12-04T14:21:30;1.10;96.50
6627;DHT22;3349;49.830;8.748;2023-12-04T14:23:58;1.10;96.50
6627;DHT22;3349;49.830;8.748;2023-12-04T14:26:25;1.10;96.80
6627;DHT22;3349;49.830;8.748;2023-12-04T14:28:53;1.00;96.50
6627;DHT22;3349;49.830;8.748;2023-12-04T14:31:19;1.00;96.80
6627;DHT22;3349;49.830;8.748;2023-12-04T14:33:46;1.00;96.80
6627;DHT22;3349;49.830;8.748;2023-12-04T14:36:13;1.10;97.70
6627;DHT22;3349;49.830;8.748;2023-12-04T14:38:40;1.10;98.20
6627;DHT22;3349;49.830;8.748;2023-12-04T14:41:08;1.10;98.70
6627;DHT22;3349;49.830;8.748;2023-12-04T14:43:35;1.10;98.70
6627;DHT22;3349;49.830;8.748;2023-12-04T14:46:03;1.00;98.30
6627;DHT22;3349;49.830;8.748;2023-12-04T14:48:30;1.00;98.40
6627;DHT22;3349;49.830;8.748;2023-12-04T14:50:57;1.10;98.50
6627;DHT22;3349;49.830;8.748;2023-12-04T15:01:11;1.10;99.30
6627;DHT22;3349;49.830;8.748;2023-12-04T15:03:55;1.10;99.30
6627;DHT22;3349;49.830;8.748;2023-12-04T15:06:55;1.10;99.90
6627;DHT22;3349;49.830;8.748;2023-12-04T15:09:38;1.10;99.90
6627;DHT22;3349;49.830;8.748;2023-12-04T15:12:38;1.10;99.90
6627;DHT22;3349;49.830;8.748;2023-12-04T15:15:31;1.10;99.90
6627;DHT22;3349;49.830;8.748;2023-12-04T15:18:08;1.10;99.90
6627;DHT22;3349;49.830;8.748;2023-12-04T15:21:00;1.00;99.90
6627;DHT22;3349;49.830;8.748;2023-12-04T15:23:27;1.00;99.90
6627;DHT22;3349;49.830;8.748;2023-12-04T15:25:53;1.00;99.90
6627;DHT22;3349;49.830;8.748;2023-12-04T15:28:19;1.00;99.90
6627;DHT22;3349;49.830;8.748;2023-12-04T15:30:45;1.10;99.90
6627;DHT22;3349;49.830;8.748;2023-12-04T15:33:13;1.10;99.90
6627;DHT22;3349;49.830;8.748;2023-12-04T15:35:39;1.10;99.90
6627;DHT22;3349;49.830;8.748;2023-12-04T15:38:07;1.10;99.90
6627;DHT22;3349;49.830;8.748;2023-12-04T15:40:32;1.00;99.90
6627;DHT22;3349;49.830;8.748;2023-12-04T15:42:59;1.10;99.90
6627;DHT22;3349;49.830;8.748;2023-12-04T15:45:25;1.00;99.90
6627;DHT22;3349;49.830;8.748;2023-12-04T15:47:51;1.00;99.90
6627;DHT22;3349;49.830;8.748;2023-12-04T15:50:19;1.00;99.90
6627;DHT22;3349;49.830;8.748;2023-12-04T15:52:48;1.00;99.90
6627;DHT22;3349;49.830;8.748;2023-12-04T15:55:13;1.00;99.90
6627;DHT22;3349;49.830;8.748;2023-12-04T15:57:40;0.90;99.90
6627;DHT22;3349;49.830;8.748;2023-12-04T16:00:07;0.90;99.90
6627;DHT22;3349;49.830;8.748;2023-12-04T16:02:35;1.00;99.90
6627;DHT22;3349;49.830;8.748;2023-12-04T16:05:01;1.00;99.90
6627;DHT22;3349;49.830;8.748;2023-12-04T16:07:29;1.00;99.90
6627;DHT22;3349;49.830;8.748;2023-12-04T16:09:56;1.00;99.90
6627;DHT22;3349;49.830;8.748;2023-12-04T16:12:23;1.00;99.90
6627;DHT22;3349;49.830;8.748;2023-12-04T16:14:50;1.00;99.90
6627;DHT22;3349;49.830;8.748;2023-12-04T16:17:16;1.00;99.90
6627;DHT22;3349;49.830;8.748;2023-12-04T16:19:43;1.00;99.90
6627;DHT22;3349;49.830;8.748;2023-12-04T16:22:10;1.00;99.90
6627;DHT22;3349;49.830;8.748;2023-12-04T16:24:38;1.00;99.90
6627;DHT22;3349;49.830;8.748;2023-12-04T16:27:05;1.00;99.90